Zachery Reinauer — WCU4692 — position and weather

sailwx.info

Track history (hours):
 
Tides and Currents Weather Stations Pressure Air Temp Water Temp Dewpoint Dewpoint Depression Visibility Wind Speed Wind Dir Waves Ship Positions

Zachery Reinauer

Owner: REINAUER TRANSPORTATION CO.,LLC, STATEN ISLAND, NY. More information available from US FCC via Universal Licensing System and Coast Guard Vessel Documentation Center.

Last reported at 2017-Oct-22 11:56 UTC. Time now 2017-Oct-22 12:15 UTC.
Position N 40°32' W 074°15'.

Length 30 m; draft 4.4 m.

Type: Tug. MMSI: 366695940.

Date/timePositionNaut miles runAvg speedWind from/ knotsBaromVisibWave heightAir tempDewpointWater temp
2017-Oct-22 11:56N 40°32' W 074°15'0 0.0
2017-Oct-22 10:06N 40°32' W 074°15'0 0.1
2017-Oct-22 10:00N 40°32' W 074°15'0 0.0
2017-Oct-22 09:29N 40°32' W 074°15'0 0.0
2017-Oct-22 09:00N 40°32' W 074°15'0 0.0
2017-Oct-22 08:30N 40°32' W 074°15'0 0.0
2017-Oct-22 08:00N 40°32' W 074°15'0 0.0
2017-Oct-22 07:30N 40°32' W 074°15'0 0.0
2017-Oct-22 07:00N 40°32' W 074°15'0 0.0
2017-Oct-22 06:29N 40°32' W 074°15'0 0.0
2017-Oct-22 05:46N 40°32' W 074°15'0 0.0
2017-Oct-22 05:30N 40°32' W 074°15'0 0.0
2017-Oct-22 04:59N 40°32' W 074°15'0 0.0
2017-Oct-22 04:29N 40°32' W 074°15'0 0.0
2017-Oct-22 03:41N 40°32' W 074°15'0 0.0
2017-Oct-22 03:30N 40°32' W 074°15'0 0.0
2017-Oct-22 03:00N 40°32' W 074°15'0 0.0
2017-Oct-22 02:29N 40°32' W 074°15'0 0.0
2017-Oct-22 01:57N 40°32' W 074°15'0 0.0
2017-Oct-22 01:09N 40°32' W 074°15'0 0.0
2017-Oct-22 01:00N 40°32' W 074°15'0 0.0
2017-Oct-21 23:54N 40°32' W 074°15'1 3.0
2017-Oct-21 23:30N 40°33' W 074°14'0 0.0
2017-Oct-21 22:59N 40°33' W 074°14'0 0.8
2017-Oct-21 22:29N 40°33' W 074°14'2 4.0
2017-Oct-21 22:00N 40°35' W 074°13'0 0.5
2017-Oct-21 21:29N 40°35' W 074°13'3 5.8
2017-Oct-21 20:57N 40°32' W 074°15'0 0.6
2017-Oct-21 20:31N 40°32' W 074°15'0 0.0
2017-Oct-21 17:23N 40°32' W 074°15'0 0.0
2017-Oct-21 15:44N 40°32' W 074°15'0 0.0
2017-Oct-21 15:02N 40°32' W 074°15'0 0.0
2017-Oct-21 14:54N 40°32' W 074°15'0 0.0
2017-Oct-21 13:57N 40°32' W 074°15'0 0.0
2017-Oct-21 13:30N 40°32' W 074°15'0 0.0
2017-Oct-21 13:00N 40°32' W 074°15'0 0.5
2017-Oct-21 12:29N 40°32' W 074°15'0 0.0
2017-Oct-21 12:00N 40°32' W 074°15'0 0.0
2017-Oct-21 11:23N 40°32' W 074°15'0 0.0
2017-Oct-21 10:44N 40°32' W 074°15'0 0.1
2017-Oct-21 08:45N 40°32' W 074°15'0 0.0
2017-Oct-21 08:30N 40°32' W 074°15'0 0.0
2017-Oct-21 08:00N 40°32' W 074°15'0 0.0
2017-Oct-21 07:30N 40°32' W 074°15'0 0.0
2017-Oct-21 07:00N 40°32' W 074°15'1 2.8
2017-Oct-21 06:30N 40°34' W 074°14'0 0.0
2017-Oct-21 06:00N 40°33' W 074°14'1 1.6
2017-Oct-21 05:30N 40°33' W 074°15'1 1.3
2017-Oct-21 05:00N 40°32' W 074°15'0 0.0
2017-Oct-21 04:28N 40°32' W 074°15'0 0.0
2017-Oct-21 04:00N 40°32' W 074°15'0 0.0
2017-Oct-21 03:31N 40°32' W 074°15'0 0.0
2017-Oct-21 02:57N 40°32' W 074°15'0 0.0
2017-Oct-21 02:27N 40°32' W 074°15'0 0.0
2017-Oct-21 02:00N 40°32' W 074°15'0 0.0
2017-Oct-21 01:30N 40°32' W 074°15'0 0.0
2017-Oct-21 00:58N 40°32' W 074°15'1 2.7
2017-Oct-21 00:30N 40°33' W 074°14'0 0.1
2017-Oct-20 23:47N 40°33' W 074°14'3 6.2
2017-Oct-20 23:16N 40°36' W 074°12'2 8.6
2017-Oct-20 23:00N 40°38' W 074°12'2 3.5
2017-Oct-20 22:31N 40°39' W 074°09'3 5.2
2017-Oct-20 22:00N 40°39' W 074°06'4 8.0
2017-Oct-20 21:30N 40°40' W 074°01'0 0.1
2017-Oct-20 21:01N 40°40' W 074°01'2 4.4
2017-Oct-20 20:31N 40°40' W 074°04'3 6.3
2017-Oct-20 20:00N 40°39' W 074°08'0 0.1
2017-Oct-20 19:30N 40°38' W 074°08'3 6.0
2017-Oct-20 18:58N 40°38' W 074°12'2 4.7
2017-Oct-20 18:29N 40°36' W 074°12'0 0.0
2017-Oct-20 18:00N 40°36' W 074°12'0 0.0
2017-Oct-20 17:29N 40°36' W 074°12'3 5.6
2017-Oct-20 17:00N 40°38' W 074°12'0 0.2
2017-Oct-20 16:30N 40°38' W 074°12'0 0.0
2017-Oct-20 16:00N 40°38' W 074°12'0 0.0
2017-Oct-20 15:30N 40°38' W 074°12'0 0.0
2017-Oct-20 15:00N 40°38' W 074°12'0 0.3
2017-Oct-20 14:30N 40°38' W 074°12'3 2.6
2017-Oct-20 13:23N 40°38' W 074°08'0 0.0
2017-Oct-20 13:00N 40°38' W 074°08'0 0.0
2017-Oct-20 12:30N 40°38' W 074°08'3 6.1
2017-Oct-20 12:00N 40°38' W 074°12'3 6.5
2017-Oct-20 11:30N 40°35' W 074°13'1 1.6
2017-Oct-20 11:00N 40°36' W 074°12'0 0.0
2017-Oct-20 10:30N 40°36' W 074°12'0 0.0
2017-Oct-20 09:59N 40°36' W 074°12'1 2.2
2017-Oct-20 09:30N 40°37' W 074°12'4 7.7
2017-Oct-20 09:01N 40°38' W 074°08'0 0.1
2017-Oct-20 08:29N 40°38' W 074°08'0 0.0
2017-Oct-20 07:58N 40°38' W 074°08'0 0.1
2017-Oct-20 07:30N 40°38' W 074°08'0 0.6
2017-Oct-20 07:00N 40°39' W 074°07'0 0.5
2017-Oct-20 06:30N 40°39' W 074°08'0 0.2
2017-Oct-20 05:57N 40°38' W 074°08'0 0.0
2017-Oct-20 05:30N 40°38' W 074°08'1 1.3
2017-Oct-20 05:00N 40°38' W 074°09'3 5.9
2017-Oct-20 04:30N 40°38' W 074°12'0 0.3
2017-Oct-20 03:59N 40°38' W 074°12'0 0.2
2017-Oct-20 03:28N 40°38' W 074°12'0 0.0
2017-Oct-20 03:00N 40°38' W 074°12'4 6.2
2017-Oct-20 02:17N 40°33' W 074°13'1 3.8
2017-Oct-20 01:55N 40°33' W 074°15'0 0.0
2017-Oct-20 01:29N 40°33' W 074°15'0 0.0
2017-Oct-19 23:10N 40°33' W 074°15'0 0.5
2017-Oct-19 22:25N 40°32' W 074°15'2 3.2
2017-Oct-19 21:51N 40°33' W 074°13'3 7.5
2017-Oct-19 21:28N 40°36' W 074°12'3 7.0
2017-Oct-19 21:00N 40°39' W 074°10'511.0
2017-Oct-19 20:30N 40°40' W 074°03'1 2.5
2017-Oct-19 20:01N 40°40' W 074°01'2 4.4
2017-Oct-19 19:30N 40°39' W 074°03'1 2.3
2017-Oct-19 19:00N 40°40' W 074°03'1 2.6
2017-Oct-19 18:30N 40°40' W 074°01'0 0.1
2017-Oct-19 18:01N 40°40' W 074°01'0 0.0
2017-Oct-19 17:30N 40°40' W 074°01'1 1.1
2017-Oct-19 17:01N 40°40' W 074°02'2 3.8
2017-Oct-19 16:31N 40°38' W 074°03'2 4.3
2017-Oct-19 16:01N 40°40' W 074°02'0 0.0
2017-Oct-19 15:31N 40°40' W 074°02'510.1
2017-Oct-19 15:00N 40°39' W 074°08'4 7.8
2017-Oct-19 14:30N 40°36' W 074°12'1 2.2
2017-Oct-19 13:50N 40°35' W 074°13'1 3.9
2017-Oct-19 13:30N 40°36' W 074°12'3 5.7
2017-Oct-19 13:00N 40°39' W 074°11'4 7.4
2017-Oct-19 12:31N 40°39' W 074°06'1 1.1
2017-Oct-19 12:01N 40°39' W 074°05'2 4.0
2017-Oct-19 11:31N 40°38' W 074°08'0 0.2
2017-Oct-19 11:00N 40°38' W 074°08'0 0.0
2017-Oct-19 10:30N 40°38' W 074°08'0 0.0
2017-Oct-19 09:59N 40°38' W 074°08'0 0.1
2017-Oct-19 09:30N 40°38' W 074°08'0 0.0
2017-Oct-19 09:00N 40°38' W 074°08'0 0.0
2017-Oct-19 08:30N 40°38' W 074°08'4 7.4
2017-Oct-19 08:00N 40°37' W 074°12'4 8.3
2017-Oct-19 07:30N 40°33' W 074°15'1 1.6
2017-Oct-19 07:00N 40°33' W 074°15'0 0.0
2017-Oct-19 06:30N 40°33' W 074°15'0 0.0
2017-Oct-19 05:59N 40°33' W 074°15'0 0.0
2017-Oct-19 05:31N 40°33' W 074°15'2 3.7
2017-Oct-19 05:00N 40°34' W 074°13'5 9.6
2017-Oct-19 04:30N 40°38' W 074°12'2 4.8
2017-Oct-19 04:01N 40°39' W 074°09'3 6.2
2017-Oct-19 03:29N 40°37' W 074°12'3 7.1
2017-Oct-19 03:00N 40°33' W 074°14'0 0.9
2017-Oct-19 02:30N 40°33' W 074°14'0 0.2
2017-Oct-19 02:00N 40°33' W 074°14'3 4.3
2017-Oct-19 01:23N 40°36' W 074°12'1 0.8
2017-Oct-19 00:36N 40°35' W 074°13'1 3.0
2017-Oct-19 00:24N 40°36' W 074°12'3 7.8
2017-Oct-19 00:00N 40°39' W 074°11'4 8.6
2017-Oct-18 23:30N 40°42' W 074°07'1 2.5
2017-Oct-18 23:01N 40°43' W 074°07'1 2.4
2017-Oct-18 22:30N 40°42' W 074°07'3 5.9
2017-Oct-18 22:00N 40°39' W 074°09'1 2.2
2017-Oct-18 21:30N 40°39' W 074°10'6 9.0
2017-Oct-18 20:52N 40°33' W 074°13'1 1.7
2017-Oct-18 20:03N 40°33' W 074°15'0 0.1
2017-Oct-18 20:00N 40°33' W 074°15'0 0.6
2017-Oct-18 19:25N 40°32' W 074°15'0 0.1
2017-Oct-18 18:58N 40°32' W 074°15'0 0.0
2017-Oct-18 18:30N 40°32' W 074°15'0 0.0
2017-Oct-18 17:59N 40°32' W 074°15'0 0.0
2017-Oct-18 17:30N 40°32' W 074°15'0 0.0
2017-Oct-18 17:00N 40°32' W 074°15'0 0.0
2017-Oct-18 16:30N 40°32' W 074°15'0 0.0
2017-Oct-18 16:00N 40°32' W 074°15'0 0.0
2017-Oct-18 15:30N 40°32' W 074°15'0 0.0
2017-Oct-18 15:00N 40°32' W 074°15'0 0.0
2017-Oct-18 14:00N 40°32' W 074°15'0 0.0
2017-Oct-18 13:27N 40°32' W 074°15'0 0.0
2017-Oct-18 12:51N 40°32' W 074°15'0 0.0
2017-Oct-18 12:29N 40°32' W 074°15'0 0.0
2017-Oct-18 11:59N 40°32' W 074°15'0 0.0
2017-Oct-18 07:02N 40°32' W 074°15'0 7.9
2017-Oct-18 07:00N 40°33' W 074°15'0 0.7
2017-Oct-18 06:26N 40°33' W 074°15'2 5.0
2017-Oct-18 05:59N 40°34' W 074°13'3 6.9
2017-Oct-18 05:30N 40°38' W 074°12'4 8.0
2017-Oct-18 05:00N 40°39' W 074°07'4 8.1
2017-Oct-18 04:31N 40°40' W 074°02'1 1.7
2017-Oct-18 04:00N 40°40' W 074°01'0 0.0
2017-Oct-18 03:30N 40°40' W 074°01'0 0.0
2017-Oct-18 03:00N 40°40' W 074°01'0 0.0
2017-Oct-18 02:30N 40°40' W 074°01'0 0.0
2017-Oct-18 02:00N 40°40' W 074°01'0 0.0
2017-Oct-18 01:31N 40°40' W 074°01'0 0.0
2017-Oct-18 01:00N 40°40' W 074°01'0 0.0
2017-Oct-18 00:31N 40°40' W 074°01'0 0.0
2017-Oct-18 00:00N 40°40' W 074°01'0 0.0
2017-Oct-17 23:31N 40°40' W 074°01'0 0.0
2017-Oct-17 23:01N 40°40' W 074°01'0 0.0
2017-Oct-17 22:30N 40°40' W 074°01'0 0.0
2017-Oct-17 22:01N 40°40' W 074°01'0 0.0
2017-Oct-17 21:30N 40°40' W 074°01'0 0.0
2017-Oct-17 21:00N 40°40' W 074°01'2 4.3
2017-Oct-17 20:31N 40°40' W 074°04'0 0.5
2017-Oct-17 20:01N 40°40' W 074°04'2 4.8
2017-Oct-17 19:31N 40°40' W 074°01'0 0.2
2017-Oct-17 19:00N 40°40' W 074°01'0 0.0
2017-Oct-17 18:30N 40°40' W 074°01'0 0.0
2017-Oct-17 18:01N 40°40' W 074°01'0 0.1
2017-Oct-17 17:31N 40°40' W 074°01'0 0.1
2017-Oct-17 17:01N 40°40' W 074°01'0 0.0
2017-Oct-17 16:31N 40°40' W 074°01'0 0.0
2017-Oct-17 16:01N 40°40' W 074°01'0 0.0
2017-Oct-17 15:31N 40°40' W 074°01'0 0.0
2017-Oct-17 15:01N 40°40' W 074°01'0 0.0
2017-Oct-17 14:30N 40°40' W 074°01'1 2.5
2017-Oct-17 14:01N 40°40' W 074°03'510.5
2017-Oct-17 13:31N 40°39' W 074°09'2 4.5
2017-Oct-17 12:59N 40°38' W 074°12'2 4.2
2017-Oct-17 12:30N 40°39' W 074°10'2 3.4
2017-Oct-17 12:00N 40°38' W 074°08'3 6.6
2017-Oct-17 11:31N 40°39' W 074°04'2 4.3
2017-Oct-17 11:01N 40°40' W 074°01'0 0.0
2017-Oct-17 10:30N 40°40' W 074°01'0 0.0
2017-Oct-17 10:00N 40°40' W 074°01'0 0.0
2017-Oct-17 09:30N 40°40' W 074°01'0 0.0
2017-Oct-17 09:01N 40°40' W 074°01'0 0.0
2017-Oct-17 08:30N 40°40' W 074°01'0 0.0
2017-Oct-17 08:00N 40°40' W 074°01'0 0.0
2017-Oct-17 07:30N 40°40' W 074°01'0 0.0
2017-Oct-17 07:00N 40°40' W 074°01'0 0.0
2017-Oct-17 06:31N 40°40' W 074°01'0 0.0
2017-Oct-17 06:01N 40°40' W 074°01'0 0.0
2017-Oct-17 05:30N 40°40' W 074°01'0 0.0
2017-Oct-17 05:00N 40°40' W 074°01'0 0.0
2017-Oct-17 04:30N 40°40' W 074°01'0 0.0
2017-Oct-17 04:00N 40°40' W 074°01'0 0.4
2017-Oct-17 03:31N 40°40' W 074°01'2 3.4
2017-Oct-17 03:01N 40°39' W 074°03'0 0.0
2017-Oct-17 02:31N 40°39' W 074°03'0 0.0
2017-Oct-17 02:00N 40°39' W 074°03'1 1.1
2017-Oct-17 01:30N 40°40' W 074°02'1 2.4
2017-Oct-17 01:01N 40°40' W 074°01'0 0.1
2017-Oct-17 00:31N 40°40' W 074°01'1 1.7
2017-Oct-17 00:01N 40°40' W 074°02'2 3.2
2017-Oct-16 23:30N 40°40' W 074°04'0 0.1
2017-Oct-16 23:00N 40°40' W 074°04'0 0.0
2017-Oct-16 22:30N 40°40' W 074°04'1 3.0
2017-Oct-16 22:00N 40°40' W 074°02'3 6.7
2017-Oct-16 21:30N 40°39' W 074°06'1 2.3
2017-Oct-16 21:01N 40°38' W 074°08'0 0.0
2017-Oct-16 20:30N 40°38' W 074°08'0 0.3
2017-Oct-16 20:01N 40°39' W 074°08'3 6.7
2017-Oct-16 19:30N 40°38' W 074°12'0 0.2
2017-Oct-16 19:00N 40°38' W 074°12'0 0.0
2017-Oct-16 18:26N 40°38' W 074°12'0 0.0
2017-Oct-16 18:00N 40°38' W 074°12'0 0.0
2017-Oct-16 17:30N 40°38' W 074°12'0 0.0
2017-Oct-16 17:01N 40°38' W 074°12'3 6.0
2017-Oct-16 16:27N 40°34' W 074°13'3 6.5
2017-Oct-16 16:00N 40°32' W 074°15'0 0.0
2017-Oct-16 15:30N 40°32' W 074°15'0 0.0
2017-Oct-16 14:58N 40°32' W 074°15'0 0.0
2017-Oct-16 14:00N 40°32' W 074°15'0 0.0
2017-Oct-16 13:30N 40°32' W 074°15'0 0.0
2017-Oct-16 13:00N 40°32' W 074°15'0 0.0
2017-Oct-16 12:30N 40°32' W 074°15'0 0.0
2017-Oct-16 11:59N 40°32' W 074°15'0 0.0
2017-Oct-16 11:30N 40°32' W 074°15'0 0.0
2017-Oct-16 11:00N 40°32' W 074°15'0 0.0
2017-Oct-16 10:30N 40°32' W 074°15'0 0.0
2017-Oct-16 10:00N 40°32' W 074°15'0 0.0
2017-Oct-16 09:30N 40°32' W 074°15'0 0.0
2017-Oct-16 09:00N 40°32' W 074°15'0 0.0
2017-Oct-16 08:26N 40°32' W 074°15'0 0.0
2017-Oct-16 08:00N 40°32' W 074°15'0 0.0
2017-Oct-16 07:30N 40°32' W 074°15'0 0.0
2017-Oct-16 07:00N 40°32' W 074°15'4 4.6
2017-Oct-16 06:12N 40°35' W 074°13'0 0.0
2017-Oct-16 05:40N 40°35' W 074°13'0 0.1
2017-Oct-16 05:30N 40°35' W 074°13'0 0.0
2017-Oct-16 05:00N 40°35' W 074°13'1 1.6
2017-Oct-16 04:30N 40°34' W 074°13'3 0.7
2017-Oct-16 00:08N 40°32' W 074°15'0 0.1
2017-Oct-16 00:00N 40°32' W 074°15'0 0.0
2017-Oct-15 17:47N 40°32' W 074°15'0 0.0
2017-Oct-15 15:51N 40°32' W 074°15'0 0.0
2017-Oct-15 15:29N 40°32' W 074°15'0 0.1
2017-Oct-15 15:00N 40°32' W 074°15'1 1.2
2017-Oct-15 13:58N 40°33' W 074°15'0 0.5
2017-Oct-15 13:29N 40°34' W 074°14'0 0.0
2017-Oct-15 13:00N 40°34' W 074°14'0 0.0
2017-Oct-15 12:28N 40°34' W 074°14'0 0.0
2017-Oct-15 12:00N 40°33' W 074°14'0 0.0
2017-Oct-15 11:30N 40°34' W 074°14'0 0.0
2017-Oct-15 11:00N 40°34' W 074°14'0 0.0
2017-Oct-15 10:30N 40°34' W 074°14'0 0.0
2017-Oct-15 09:05N 40°34' W 074°14'0 0.0
2017-Oct-15 08:58N 40°34' W 074°14'0 0.0
2017-Oct-15 08:30N 40°34' W 074°14'0 0.0
2017-Oct-15 08:00N 40°34' W 074°14'0 0.0
2017-Oct-15 07:30N 40°34' W 074°14'0 0.0
2017-Oct-15 07:00N 40°34' W 074°14'0 0.0
2017-Oct-15 06:30N 40°34' W 074°14'0 0.0
2017-Oct-15 06:00N 40°34' W 074°14'0 0.0
2017-Oct-15 05:31N 40°34' W 074°14'0 0.0
2017-Oct-15 05:00N 40°34' W 074°14'0 0.0
2017-Oct-15 04:28N 40°34' W 074°14'0 0.0
2017-Oct-15 03:57N 40°34' W 074°14'0 0.0
2017-Oct-15 03:30N 40°34' W 074°14'0 0.0
2017-Oct-15 03:00N 40°34' W 074°14'0 0.0
2017-Oct-15 02:30N 40°34' W 074°14'0 0.0
2017-Oct-15 01:59N 40°34' W 074°14'0 0.0
2017-Oct-15 01:30N 40°34' W 074°14'0 0.0
2017-Oct-15 00:34N 40°34' W 074°14'0 0.0
2017-Oct-15 00:28N 40°34' W 074°14'0 0.0
2017-Oct-14 23:59N 40°34' W 074°14'0 0.0
2017-Oct-14 23:30N 40°34' W 074°14'0 0.0
2017-Oct-14 22:59N 40°34' W 074°14'0 0.0
2017-Oct-14 22:30N 40°34' W 074°14'0 0.0
2017-Oct-14 21:46N 40°34' W 074°14'0 0.0
2017-Oct-14 21:28N 40°34' W 074°14'0 0.0
2017-Oct-14 20:58N 40°34' W 074°14'0 0.0
2017-Oct-14 20:30N 40°34' W 074°14'0 0.0
2017-Oct-14 20:00N 40°34' W 074°14'0 0.0
2017-Oct-14 19:30N 40°34' W 074°14'0 0.0
2017-Oct-14 18:59N 40°34' W 074°14'0 0.0
2017-Oct-14 18:31N 40°34' W 074°14'0 0.2
2017-Oct-14 17:59N 40°33' W 074°14'0 0.0
2017-Oct-14 17:30N 40°33' W 074°14'0 0.3
2017-Oct-14 16:58N 40°33' W 074°14'0 0.6
2017-Oct-14 16:29N 40°34' W 074°14'0 0.0
2017-Oct-14 15:53N 40°34' W 074°14'0 0.0
2017-Oct-14 13:49N 40°34' W 074°14'1 2.8
2017-Oct-14 13:26N 40°33' W 074°15'1 0.3
2017-Oct-14 11:37N 40°32' W 074°15'0 0.0
2017-Oct-14 11:27N 40°32' W 074°15'0 0.3
2017-Oct-14 10:59N 40°32' W 074°15'0 0.0
2017-Oct-14 10:30N 40°32' W 074°15'0 0.0
2017-Oct-14 09:57N 40°32' W 074°15'0 0.0
2017-Oct-14 09:30N 40°32' W 074°15'0 0.0
2017-Oct-14 08:58N 40°32' W 074°15'0 0.0
2017-Oct-14 08:30N 40°32' W 074°15'0 0.0
2017-Oct-14 08:00N 40°32' W 074°15'0 0.0
2017-Oct-14 07:04N 40°32' W 074°15'0 0.1
2017-Oct-14 06:59N 40°32' W 074°15'0 0.0
2017-Oct-14 06:24N 40°32' W 074°15'0 0.0
2017-Oct-14 06:00N 40°32' W 074°15'0 0.0
2017-Oct-14 05:30N 40°32' W 074°15'0 0.0
2017-Oct-14 05:01N 40°32' W 074°15'0 0.1
2017-Oct-14 04:12N 40°32' W 074°15'1 2.7
2017-Oct-14 03:42N 40°33' W 074°15'0 0.7
2017-Oct-14 03:31N 40°33' W 074°14'1 1.5
2017-Oct-14 02:59N 40°33' W 074°13'1 1.6
2017-Oct-14 02:04N 40°33' W 074°15'0 0.6
2017-Oct-14 01:45N 40°33' W 074°15'0 1.2
2017-Oct-14 01:24N 40°32' W 074°15'0 0.0
2017-Oct-14 01:00N 40°32' W 074°15'0 0.0
2017-Oct-14 00:26N 40°32' W 074°15'0 0.0
2017-Oct-14 00:00N 40°32' W 074°15'0 0.0
2017-Oct-13 23:25N 40°32' W 074°15'0 0.0
2017-Oct-13 23:01N 40°32' W 074°15'0 0.0
2017-Oct-13 22:29N 40°32' W 074°15'0 0.0
2017-Oct-13 21:59N 40°32' W 074°15'0 0.0
2017-Oct-13 21:29N 40°32' W 074°15'0 0.0
2017-Oct-13 20:54N 40°32' W 074°15'0 0.0
2017-Oct-13 20:30N 40°32' W 074°15'0 0.3
2017-Oct-13 20:00N 40°32' W 074°15'0 0.0
2017-Oct-13 17:52N 40°32' W 074°15'1 1.4
2017-Oct-13 17:23N 40°31' W 074°15'1 1.8
2017-Oct-13 17:01N 40°32' W 074°15'1 0.6
2017-Oct-13 14:50N 40°33' W 074°15'3 7.0
2017-Oct-13 14:28N 40°35' W 074°13'2 3.4
2017-Oct-13 13:54N 40°33' W 074°13'2 2.7
2017-Oct-13 13:17N 40°32' W 074°15'0 1.4
2017-Oct-13 13:00N 40°32' W 074°15'0 0.0
2017-Oct-13 12:29N 40°32' W 074°15'1 0.3
2017-Oct-13 08:37N 40°33' W 074°15'2 6.6
2017-Oct-13 08:16N 40°35' W 074°13'0 0.0
2017-Oct-13 07:59N 40°35' W 074°13'0 0.0
2017-Oct-13 07:30N 40°35' W 074°13'0 0.4
2017-Oct-13 07:00N 40°35' W 074°12'2 3.6
2017-Oct-13 06:30N 40°37' W 074°12'1 2.3
2017-Oct-13 06:00N 40°38' W 074°12'510.5
2017-Oct-13 05:29N 40°33' W 074°15'1 0.7
2017-Oct-13 03:59N 40°32' W 074°15'0 0.4
2017-Oct-13 03:16N 40°32' W 074°15'0 0.8
2017-Oct-13 02:59N 40°33' W 074°15'0 0.2
2017-Oct-13 01:38N 40°33' W 074°15'0 2.3
2017-Oct-13 01:30N 40°32' W 074°15'0 0.6
2017-Oct-13 00:59N 40°33' W 074°15'0 0.0
2017-Oct-13 00:23N 40°33' W 074°15'1 1.9
2017-Oct-12 23:58N 40°33' W 074°14'3 5.9
2017-Oct-12 23:29N 40°36' W 074°12'0 0.0
2017-Oct-12 22:25N 40°36' W 074°12'0 0.6
2017-Oct-12 21:59N 40°36' W 074°12'0 0.1
2017-Oct-12 20:13N 40°36' W 074°12'0 0.0
2017-Oct-12 19:43N 40°36' W 074°12'0 1.3
2017-Oct-12 19:30N 40°35' W 074°12'4 0.8
2017-Oct-12 14:50N 40°32' W 074°15'0 0.3
2017-Oct-12 13:10N 40°33' W 074°15'  
Track history (hours):
 
Tides and Currents Weather Stations Pressure Air Temp Water Temp Dewpoint Dewpoint Depression Visibility Wind Speed Wind Dir Waves Ship Positions

Zachery Reinauer

Owner: REINAUER TRANSPORTATION CO.,LLC, STATEN ISLAND, NY. More information available from US FCC via Universal Licensing System and Coast Guard Vessel Documentation Center.

Last reported at 2017-Oct-22 11:56 UTC. Time now 2017-Oct-22 12:15 UTC.
Position N 40°32' W 074°15'.

Length 30 m; draft 4.4 m.

Type: Tug. MMSI: 366695940.

Date/timePositionNaut miles runAvg speedWind from/ knotsBaromVisibWave heightAir tempDewpointWater temp
2017-Oct-22 11:56N 40°32' W 074°15'0 0.0
2017-Oct-22 10:06N 40°32' W 074°15'0 0.1
2017-Oct-22 10:00N 40°32' W 074°15'0 0.0
2017-Oct-22 09:29N 40°32' W 074°15'0 0.0
2017-Oct-22 09:00N 40°32' W 074°15'0 0.0
2017-Oct-22 08:30N 40°32' W 074°15'0 0.0
2017-Oct-22 08:00N 40°32' W 074°15'0 0.0
2017-Oct-22 07:30N 40°32' W 074°15'0 0.0
2017-Oct-22 07:00N 40°32' W 074°15'0 0.0
2017-Oct-22 06:29N 40°32' W 074°15'0 0.0
2017-Oct-22 05:46N 40°32' W 074°15'0 0.0
2017-Oct-22 05:30N 40°32' W 074°15'0 0.0
2017-Oct-22 04:59N 40°32' W 074°15'0 0.0
2017-Oct-22 04:29N 40°32' W 074°15'0 0.0
2017-Oct-22 03:41N 40°32' W 074°15'0 0.0
2017-Oct-22 03:30N 40°32' W 074°15'0 0.0
2017-Oct-22 03:00N 40°32' W 074°15'0 0.0
2017-Oct-22 02:29N 40°32' W 074°15'0 0.0
2017-Oct-22 01:57N 40°32' W 074°15'0 0.0
2017-Oct-22 01:09N 40°32' W 074°15'0 0.0
2017-Oct-22 01:00N 40°32' W 074°15'0 0.0
2017-Oct-21 23:54N 40°32' W 074°15'1 3.0
2017-Oct-21 23:30N 40°33' W 074°14'0 0.0
2017-Oct-21 22:59N 40°33' W 074°14'0 0.8
2017-Oct-21 22:29N 40°33' W 074°14'2 4.0
2017-Oct-21 22:00N 40°35' W 074°13'0 0.5
2017-Oct-21 21:29N 40°35' W 074°13'3 5.8
2017-Oct-21 20:57N 40°32' W 074°15'0 0.6
2017-Oct-21 20:31N 40°32' W 074°15'0 0.0
2017-Oct-21 17:23N 40°32' W 074°15'0 0.0
2017-Oct-21 15:44N 40°32' W 074°15'0 0.0
2017-Oct-21 15:02N 40°32' W 074°15'0 0.0
2017-Oct-21 14:54N 40°32' W 074°15'0 0.0
2017-Oct-21 13:57N 40°32' W 074°15'0 0.0
2017-Oct-21 13:30N 40°32' W 074°15'0 0.0
2017-Oct-21 13:00N 40°32' W 074°15'0 0.5
2017-Oct-21 12:29N 40°32' W 074°15'0 0.0
2017-Oct-21 12:00N 40°32' W 074°15'0 0.0
2017-Oct-21 11:23N 40°32' W 074°15'0 0.0
2017-Oct-21 10:44N 40°32' W 074°15'0 0.1
2017-Oct-21 08:45N 40°32' W 074°15'0 0.0
2017-Oct-21 08:30N 40°32' W 074°15'0 0.0
2017-Oct-21 08:00N 40°32' W 074°15'0 0.0
2017-Oct-21 07:30N 40°32' W 074°15'0 0.0
2017-Oct-21 07:00N 40°32' W 074°15'1 2.8
2017-Oct-21 06:30N 40°34' W 074°14'0 0.0
2017-Oct-21 06:00N 40°33' W 074°14'1 1.6
2017-Oct-21 05:30N 40°33' W 074°15'1 1.3
2017-Oct-21 05:00N 40°32' W 074°15'0 0.0
2017-Oct-21 04:28N 40°32' W 074°15'0 0.0
2017-Oct-21 04:00N 40°32' W 074°15'0 0.0
2017-Oct-21 03:31N 40°32' W 074°15'0 0.0
2017-Oct-21 02:57N 40°32' W 074°15'0 0.0
2017-Oct-21 02:27N 40°32' W 074°15'0 0.0
2017-Oct-21 02:00N 40°32' W 074°15'0 0.0
2017-Oct-21 01:30N 40°32' W 074°15'0 0.0
2017-Oct-21 00:58N 40°32' W 074°15'1 2.7
2017-Oct-21 00:30N 40°33' W 074°14'0 0.1
2017-Oct-20 23:47N 40°33' W 074°14'3 6.2
2017-Oct-20 23:16N 40°36' W 074°12'2 8.6
2017-Oct-20 23:00N 40°38' W 074°12'2 3.5
2017-Oct-20 22:31N 40°39' W 074°09'3 5.2
2017-Oct-20 22:00N 40°39' W 074°06'4 8.0
2017-Oct-20 21:30N 40°40' W 074°01'0 0.1
2017-Oct-20 21:01N 40°40' W 074°01'2 4.4
2017-Oct-20 20:31N 40°40' W 074°04'3 6.3
2017-Oct-20 20:00N 40°39' W 074°08'0 0.1
2017-Oct-20 19:30N 40°38' W 074°08'3 6.0
2017-Oct-20 18:58N 40°38' W 074°12'2 4.7
2017-Oct-20 18:29N 40°36' W 074°12'0 0.0
2017-Oct-20 18:00N 40°36' W 074°12'0 0.0
2017-Oct-20 17:29N 40°36' W 074°12'3 5.6
2017-Oct-20 17:00N 40°38' W 074°12'0 0.2
2017-Oct-20 16:30N 40°38' W 074°12'0 0.0
2017-Oct-20 16:00N 40°38' W 074°12'0 0.0
2017-Oct-20 15:30N 40°38' W 074°12'0 0.0
2017-Oct-20 15:00N 40°38' W 074°12'0 0.3
2017-Oct-20 14:30N 40°38' W 074°12'3 2.6
2017-Oct-20 13:23N 40°38' W 074°08'0 0.0
2017-Oct-20 13:00N 40°38' W 074°08'0 0.0
2017-Oct-20 12:30N 40°38' W 074°08'3 6.1
2017-Oct-20 12:00N 40°38' W 074°12'3 6.5
2017-Oct-20 11:30N 40°35' W 074°13'1 1.6
2017-Oct-20 11:00N 40°36' W 074°12'0 0.0
2017-Oct-20 10:30N 40°36' W 074°12'0 0.0
2017-Oct-20 09:59N 40°36' W 074°12'1 2.2
2017-Oct-20 09:30N 40°37' W 074°12'4 7.7
2017-Oct-20 09:01N 40°38' W 074°08'0 0.1
2017-Oct-20 08:29N 40°38' W 074°08'0 0.0
2017-Oct-20 07:58N 40°38' W 074°08'0 0.1
2017-Oct-20 07:30N 40°38' W 074°08'0 0.6
2017-Oct-20 07:00N 40°39' W 074°07'0 0.5
2017-Oct-20 06:30N 40°39' W 074°08'0 0.2
2017-Oct-20 05:57N 40°38' W 074°08'0 0.0
2017-Oct-20 05:30N 40°38' W 074°08'1 1.3
2017-Oct-20 05:00N 40°38' W 074°09'3 5.9
2017-Oct-20 04:30N 40°38' W 074°12'0 0.3
2017-Oct-20 03:59N 40°38' W 074°12'0 0.2
2017-Oct-20 03:28N 40°38' W 074°12'0 0.0
2017-Oct-20 03:00N 40°38' W 074°12'4 6.2
2017-Oct-20 02:17N 40°33' W 074°13'1 3.8
2017-Oct-20 01:55N 40°33' W 074°15'0 0.0
2017-Oct-20 01:29N 40°33' W 074°15'0 0.0
2017-Oct-19 23:10N 40°33' W 074°15'0 0.5
2017-Oct-19 22:25N 40°32' W 074°15'2 3.2
2017-Oct-19 21:51N 40°33' W 074°13'3 7.5
2017-Oct-19 21:28N 40°36' W 074°12'3 7.0
2017-Oct-19 21:00N 40°39' W 074°10'511.0
2017-Oct-19 20:30N 40°40' W 074°03'1 2.5
2017-Oct-19 20:01N 40°40' W 074°01'2 4.4
2017-Oct-19 19:30N 40°39' W 074°03'1 2.3
2017-Oct-19 19:00N 40°40' W 074°03'1 2.6
2017-Oct-19 18:30N 40°40' W 074°01'0 0.1
2017-Oct-19 18:01N 40°40' W 074°01'0 0.0
2017-Oct-19 17:30N 40°40' W 074°01'1 1.1
2017-Oct-19 17:01N 40°40' W 074°02'2 3.8
2017-Oct-19 16:31N 40°38' W 074°03'2 4.3
2017-Oct-19 16:01N 40°40' W 074°02'0 0.0
2017-Oct-19 15:31N 40°40' W 074°02'510.1
2017-Oct-19 15:00N 40°39' W 074°08'4 7.8
2017-Oct-19 14:30N 40°36' W 074°12'1 2.2
2017-Oct-19 13:50N 40°35' W 074°13'1 3.9
2017-Oct-19 13:30N 40°36' W 074°12'3 5.7
2017-Oct-19 13:00N 40°39' W 074°11'4 7.4
2017-Oct-19 12:31N 40°39' W 074°06'1 1.1
2017-Oct-19 12:01N 40°39' W 074°05'2 4.0
2017-Oct-19 11:31N 40°38' W 074°08'0 0.2
2017-Oct-19 11:00N 40°38' W 074°08'0 0.0
2017-Oct-19 10:30N 40°38' W 074°08'0 0.0
2017-Oct-19 09:59N 40°38' W 074°08'0 0.1
2017-Oct-19 09:30N 40°38' W 074°08'0 0.0
2017-Oct-19 09:00N 40°38' W 074°08'0 0.0
2017-Oct-19 08:30N 40°38' W 074°08'4 7.4
2017-Oct-19 08:00N 40°37' W 074°12'4 8.3
2017-Oct-19 07:30N 40°33' W 074°15'1 1.6
2017-Oct-19 07:00N 40°33' W 074°15'0 0.0
2017-Oct-19 06:30N 40°33' W 074°15'0 0.0
2017-Oct-19 05:59N 40°33' W 074°15'0 0.0
2017-Oct-19 05:31N 40°33' W 074°15'2 3.7
2017-Oct-19 05:00N 40°34' W 074°13'5 9.6
2017-Oct-19 04:30N 40°38' W 074°12'2 4.8
2017-Oct-19 04:01N 40°39' W 074°09'3 6.2
2017-Oct-19 03:29N 40°37' W 074°12'3 7.1
2017-Oct-19 03:00N 40°33' W 074°14'0 0.9
2017-Oct-19 02:30N 40°33' W 074°14'0 0.2
2017-Oct-19 02:00N 40°33' W 074°14'3 4.3
2017-Oct-19 01:23N 40°36' W 074°12'1 0.8
2017-Oct-19 00:36N 40°35' W 074°13'1 3.0
2017-Oct-19 00:24N 40°36' W 074°12'3 7.8
2017-Oct-19 00:00N 40°39' W 074°11'4 8.6
2017-Oct-18 23:30N 40°42' W 074°07'1 2.5
2017-Oct-18 23:01N 40°43' W 074°07'1 2.4
2017-Oct-18 22:30N 40°42' W 074°07'3 5.9
2017-Oct-18 22:00N 40°39' W 074°09'1 2.2
2017-Oct-18 21:30N 40°39' W 074°10'6 9.0
2017-Oct-18 20:52N 40°33' W 074°13'1 1.7
2017-Oct-18 20:03N 40°33' W 074°15'0 0.1
2017-Oct-18 20:00N 40°33' W 074°15'0 0.6
2017-Oct-18 19:25N 40°32' W 074°15'0 0.1
2017-Oct-18 18:58N 40°32' W 074°15'0 0.0
2017-Oct-18 18:30N 40°32' W 074°15'0 0.0
2017-Oct-18 17:59N 40°32' W 074°15'0 0.0
2017-Oct-18 17:30N 40°32' W 074°15'0 0.0
2017-Oct-18 17:00N 40°32' W 074°15'0 0.0
2017-Oct-18 16:30N 40°32' W 074°15'0 0.0
2017-Oct-18 16:00N 40°32' W 074°15'0 0.0
2017-Oct-18 15:30N 40°32' W 074°15'0 0.0
2017-Oct-18 15:00N 40°32' W 074°15'0 0.0
2017-Oct-18 14:00N 40°32' W 074°15'0 0.0
2017-Oct-18 13:27N 40°32' W 074°15'0 0.0
2017-Oct-18 12:51N 40°32' W 074°15'0 0.0
2017-Oct-18 12:29N 40°32' W 074°15'0 0.0
2017-Oct-18 11:59N 40°32' W 074°15'0 0.0
2017-Oct-18 07:02N 40°32' W 074°15'0 7.9
2017-Oct-18 07:00N 40°33' W 074°15'0 0.7
2017-Oct-18 06:26N 40°33' W 074°15'2 5.0
2017-Oct-18 05:59N 40°34' W 074°13'3 6.9
2017-Oct-18 05:30N 40°38' W 074°12'4 8.0
2017-Oct-18 05:00N 40°39' W 074°07'4 8.1
2017-Oct-18 04:31N 40°40' W 074°02'1 1.7
2017-Oct-18 04:00N 40°40' W 074°01'0 0.0
2017-Oct-18 03:30N 40°40' W 074°01'0 0.0
2017-Oct-18 03:00N 40°40' W 074°01'0 0.0
2017-Oct-18 02:30N 40°40' W 074°01'0 0.0
2017-Oct-18 02:00N 40°40' W 074°01'0 0.0
2017-Oct-18 01:31N 40°40' W 074°01'0 0.0
2017-Oct-18 01:00N 40°40' W 074°01'0 0.0
2017-Oct-18 00:31N 40°40' W 074°01'0 0.0
2017-Oct-18 00:00N 40°40' W 074°01'0 0.0
2017-Oct-17 23:31N 40°40' W 074°01'0 0.0
2017-Oct-17 23:01N 40°40' W 074°01'0 0.0
2017-Oct-17 22:30N 40°40' W 074°01'0 0.0
2017-Oct-17 22:01N 40°40' W 074°01'0 0.0
2017-Oct-17 21:30N 40°40' W 074°01'0 0.0
2017-Oct-17 21:00N 40°40' W 074°01'2 4.3
2017-Oct-17 20:31N 40°40' W 074°04'0 0.5
2017-Oct-17 20:01N 40°40' W 074°04'2 4.8
2017-Oct-17 19:31N 40°40' W 074°01'0 0.2
2017-Oct-17 19:00N 40°40' W 074°01'0 0.0
2017-Oct-17 18:30N 40°40' W 074°01'0 0.0
2017-Oct-17 18:01N 40°40' W 074°01'0 0.1
2017-Oct-17 17:31N 40°40' W 074°01'0 0.1
2017-Oct-17 17:01N 40°40' W 074°01'0 0.0
2017-Oct-17 16:31N 40°40' W 074°01'0 0.0
2017-Oct-17 16:01N 40°40' W 074°01'0 0.0
2017-Oct-17 15:31N 40°40' W 074°01'0 0.0
2017-Oct-17 15:01N 40°40' W 074°01'0 0.0
2017-Oct-17 14:30N 40°40' W 074°01'1 2.5
2017-Oct-17 14:01N 40°40' W 074°03'510.5
2017-Oct-17 13:31N 40°39' W 074°09'2 4.5
2017-Oct-17 12:59N 40°38' W 074°12'2 4.2
2017-Oct-17 12:30N 40°39' W 074°10'2 3.4
2017-Oct-17 12:00N 40°38' W 074°08'3 6.6
2017-Oct-17 11:31N 40°39' W 074°04'2 4.3
2017-Oct-17 11:01N 40°40' W 074°01'0 0.0
2017-Oct-17 10:30N 40°40' W 074°01'0 0.0
2017-Oct-17 10:00N 40°40' W 074°01'0 0.0
2017-Oct-17 09:30N 40°40' W 074°01'0 0.0
2017-Oct-17 09:01N 40°40' W 074°01'0 0.0
2017-Oct-17 08:30N 40°40' W 074°01'0 0.0
2017-Oct-17 08:00N 40°40' W 074°01'0 0.0
2017-Oct-17 07:30N 40°40' W 074°01'0 0.0
2017-Oct-17 07:00N 40°40' W 074°01'0 0.0
2017-Oct-17 06:31N 40°40' W 074°01'0 0.0
2017-Oct-17 06:01N 40°40' W 074°01'0 0.0
2017-Oct-17 05:30N 40°40' W 074°01'0 0.0
2017-Oct-17 05:00N 40°40' W 074°01'0 0.0
2017-Oct-17 04:30N 40°40' W 074°01'0 0.0
2017-Oct-17 04:00N 40°40' W 074°01'0 0.4
2017-Oct-17 03:31N 40°40' W 074°01'2 3.4
2017-Oct-17 03:01N 40°39' W 074°03'0 0.0
2017-Oct-17 02:31N 40°39' W 074°03'0 0.0
2017-Oct-17 02:00N 40°39' W 074°03'1 1.1
2017-Oct-17 01:30N 40°40' W 074°02'1 2.4
2017-Oct-17 01:01N 40°40' W 074°01'0 0.1
2017-Oct-17 00:31N 40°40' W 074°01'1 1.7
2017-Oct-17 00:01N 40°40' W 074°02'2 3.2
2017-Oct-16 23:30N 40°40' W 074°04'0 0.1
2017-Oct-16 23:00N 40°40' W 074°04'0 0.0
2017-Oct-16 22:30N 40°40' W 074°04'1 3.0
2017-Oct-16 22:00N 40°40' W 074°02'3 6.7
2017-Oct-16 21:30N 40°39' W 074°06'1 2.3
2017-Oct-16 21:01N 40°38' W 074°08'0 0.0
2017-Oct-16 20:30N 40°38' W 074°08'0 0.3
2017-Oct-16 20:01N 40°39' W 074°08'3 6.7
2017-Oct-16 19:30N 40°38' W 074°12'0 0.2
2017-Oct-16 19:00N 40°38' W 074°12'0 0.0
2017-Oct-16 18:26N 40°38' W 074°12'0 0.0
2017-Oct-16 18:00N 40°38' W 074°12'0 0.0
2017-Oct-16 17:30N 40°38' W 074°12'0 0.0
2017-Oct-16 17:01N 40°38' W 074°12'3 6.0
2017-Oct-16 16:27N 40°34' W 074°13'3 6.5
2017-Oct-16 16:00N 40°32' W 074°15'0 0.0
2017-Oct-16 15:30N 40°32' W 074°15'0 0.0
2017-Oct-16 14:58N 40°32' W 074°15'0 0.0
2017-Oct-16 14:00N 40°32' W 074°15'0 0.0
2017-Oct-16 13:30N 40°32' W 074°15'0 0.0
2017-Oct-16 13:00N 40°32' W 074°15'0 0.0
2017-Oct-16 12:30N 40°32' W 074°15'0 0.0
2017-Oct-16 11:59N 40°32' W 074°15'0 0.0
2017-Oct-16 11:30N 40°32' W 074°15'0 0.0
2017-Oct-16 11:00N 40°32' W 074°15'0 0.0
2017-Oct-16 10:30N 40°32' W 074°15'0 0.0
2017-Oct-16 10:00N 40°32' W 074°15'0 0.0
2017-Oct-16 09:30N 40°32' W 074°15'0 0.0
2017-Oct-16 09:00N 40°32' W 074°15'0 0.0
2017-Oct-16 08:26N 40°32' W 074°15'0 0.0
2017-Oct-16 08:00N 40°32' W 074°15'0 0.0
2017-Oct-16 07:30N 40°32' W 074°15'0 0.0
2017-Oct-16 07:00N 40°32' W 074°15'4 4.6
2017-Oct-16 06:12N 40°35' W 074°13'0 0.0
2017-Oct-16 05:40N 40°35' W 074°13'0 0.1
2017-Oct-16 05:30N 40°35' W 074°13'0 0.0
2017-Oct-16 05:00N 40°35' W 074°13'1 1.6
2017-Oct-16 04:30N 40°34' W 074°13'3 0.7
2017-Oct-16 00:08N 40°32' W 074°15'0 0.1
2017-Oct-16 00:00N 40°32' W 074°15'0 0.0
2017-Oct-15 17:47N 40°32' W 074°15'0 0.0
2017-Oct-15 15:51N 40°32' W 074°15'0 0.0
2017-Oct-15 15:29N 40°32' W 074°15'0 0.1
2017-Oct-15 15:00N 40°32' W 074°15'1 1.2
2017-Oct-15 13:58N 40°33' W 074°15'0 0.5
2017-Oct-15 13:29N 40°34' W 074°14'0 0.0
2017-Oct-15 13:00N 40°34' W 074°14'0 0.0
2017-Oct-15 12:28N 40°34' W 074°14'0 0.0
2017-Oct-15 12:00N 40°33' W 074°14'0 0.0
2017-Oct-15 11:30N 40°34' W 074°14'0 0.0
2017-Oct-15 11:00N 40°34' W 074°14'0 0.0
2017-Oct-15 10:30N 40°34' W 074°14'0 0.0
2017-Oct-15 09:05N 40°34' W 074°14'0 0.0
2017-Oct-15 08:58N 40°34' W 074°14'0 0.0
2017-Oct-15 08:30N 40°34' W 074°14'0 0.0
2017-Oct-15 08:00N 40°34' W 074°14'0 0.0
2017-Oct-15 07:30N 40°34' W 074°14'0 0.0
2017-Oct-15 07:00N 40°34' W 074°14'0 0.0
2017-Oct-15 06:30N 40°34' W 074°14'0 0.0
2017-Oct-15 06:00N 40°34' W 074°14'0 0.0
2017-Oct-15 05:31N 40°34' W 074°14'0 0.0
2017-Oct-15 05:00N 40°34' W 074°14'0 0.0
2017-Oct-15 04:28N 40°34' W 074°14'0 0.0
2017-Oct-15 03:57N 40°34' W 074°14'0 0.0
2017-Oct-15 03:30N 40°34' W 074°14'0 0.0
2017-Oct-15 03:00N 40°34' W 074°14'0 0.0
2017-Oct-15 02:30N 40°34' W 074°14'0 0.0
2017-Oct-15 01:59N 40°34' W 074°14'0 0.0
2017-Oct-15 01:30N 40°34' W 074°14'0 0.0
2017-Oct-15 00:34N 40°34' W 074°14'0 0.0
2017-Oct-15 00:28N 40°34' W 074°14'0 0.0
2017-Oct-14 23:59N 40°34' W 074°14'0 0.0
2017-Oct-14 23:30N 40°34' W 074°14'0 0.0
2017-Oct-14 22:59N 40°34' W 074°14'0 0.0
2017-Oct-14 22:30N 40°34' W 074°14'0 0.0
2017-Oct-14 21:46N 40°34' W 074°14'0 0.0
2017-Oct-14 21:28N 40°34' W 074°14'0 0.0
2017-Oct-14 20:58N 40°34' W 074°14'0 0.0
2017-Oct-14 20:30N 40°34' W 074°14'0 0.0
2017-Oct-14 20:00N 40°34' W 074°14'0 0.0
2017-Oct-14 19:30N 40°34' W 074°14'0 0.0
2017-Oct-14 18:59N 40°34' W 074°14'0 0.0
2017-Oct-14 18:31N 40°34' W 074°14'0 0.2
2017-Oct-14 17:59N 40°33' W 074°14'0 0.0
2017-Oct-14 17:30N 40°33' W 074°14'0 0.3
2017-Oct-14 16:58N 40°33' W 074°14'0 0.6
2017-Oct-14 16:29N 40°34' W 074°14'0 0.0
2017-Oct-14 15:53N 40°34' W 074°14'0 0.0
2017-Oct-14 13:49N 40°34' W 074°14'1 2.8
2017-Oct-14 13:26N 40°33' W 074°15'1 0.3
2017-Oct-14 11:37N 40°32' W 074°15'0 0.0
2017-Oct-14 11:27N 40°32' W 074°15'0 0.3
2017-Oct-14 10:59N 40°32' W 074°15'0 0.0
2017-Oct-14 10:30N 40°32' W 074°15'0 0.0
2017-Oct-14 09:57N 40°32' W 074°15'0 0.0
2017-Oct-14 09:30N 40°32' W 074°15'0 0.0
2017-Oct-14 08:58N 40°32' W 074°15'0 0.0
2017-Oct-14 08:30N 40°32' W 074°15'0 0.0
2017-Oct-14 08:00N 40°32' W 074°15'0 0.0
2017-Oct-14 07:04N 40°32' W 074°15'0 0.1
2017-Oct-14 06:59N 40°32' W 074°15'0 0.0
2017-Oct-14 06:24N 40°32' W 074°15'0 0.0
2017-Oct-14 06:00N 40°32' W 074°15'0 0.0
2017-Oct-14 05:30N 40°32' W 074°15'0 0.0
2017-Oct-14 05:01N 40°32' W 074°15'0 0.1
2017-Oct-14 04:12N 40°32' W 074°15'1 2.7
2017-Oct-14 03:42N 40°33' W 074°15'0 0.7
2017-Oct-14 03:31N 40°33' W 074°14'1 1.5
2017-Oct-14 02:59N 40°33' W 074°13'1 1.6
2017-Oct-14 02:04N 40°33' W 074°15'0 0.6
2017-Oct-14 01:45N 40°33' W 074°15'0 1.2
2017-Oct-14 01:24N 40°32' W 074°15'0 0.0
2017-Oct-14 01:00N 40°32' W 074°15'0 0.0
2017-Oct-14 00:26N 40°32' W 074°15'0 0.0
2017-Oct-14 00:00N 40°32' W 074°15'0 0.0
2017-Oct-13 23:25N 40°32' W 074°15'0 0.0
2017-Oct-13 23:01N 40°32' W 074°15'0 0.0
2017-Oct-13 22:29N 40°32' W 074°15'0 0.0
2017-Oct-13 21:59N 40°32' W 074°15'0 0.0
2017-Oct-13 21:29N 40°32' W 074°15'0 0.0
2017-Oct-13 20:54N 40°32' W 074°15'0 0.0
2017-Oct-13 20:30N 40°32' W 074°15'0 0.3
2017-Oct-13 20:00N 40°32' W 074°15'0 0.0
2017-Oct-13 17:52N 40°32' W 074°15'1 1.4
2017-Oct-13 17:23N 40°31' W 074°15'1 1.8
2017-Oct-13 17:01N 40°32' W 074°15'1 0.6
2017-Oct-13 14:50N 40°33' W 074°15'3 7.0
2017-Oct-13 14:28N 40°35' W 074°13'2 3.4
2017-Oct-13 13:54N 40°33' W 074°13'2 2.7
2017-Oct-13 13:17N 40°32' W 074°15'0 1.4
2017-Oct-13 13:00N 40°32' W 074°15'0 0.0
2017-Oct-13 12:29N 40°32' W 074°15'1 0.3
2017-Oct-13 08:37N 40°33' W 074°15'2 6.6
2017-Oct-13 08:16N 40°35' W 074°13'0 0.0
2017-Oct-13 07:59N 40°35' W 074°13'0 0.0
2017-Oct-13 07:30N 40°35' W 074°13'0 0.4
2017-Oct-13 07:00N 40°35' W 074°12'2 3.6
2017-Oct-13 06:30N 40°37' W 074°12'1 2.3
2017-Oct-13 06:00N 40°38' W 074°12'510.5
2017-Oct-13 05:29N 40°33' W 074°15'1 0.7
2017-Oct-13 03:59N 40°32' W 074°15'0 0.4
2017-Oct-13 03:16N 40°32' W 074°15'0 0.8
2017-Oct-13 02:59N 40°33' W 074°15'0 0.2
2017-Oct-13 01:38N 40°33' W 074°15'0 2.3
2017-Oct-13 01:30N 40°32' W 074°15'0 0.6
2017-Oct-13 00:59N 40°33' W 074°15'0 0.0
2017-Oct-13 00:23N 40°33' W 074°15'1 1.9
2017-Oct-12 23:58N 40°33' W 074°14'3 5.9
2017-Oct-12 23:29N 40°36' W 074°12'0 0.0
2017-Oct-12 22:25N 40°36' W 074°12'0 0.6
2017-Oct-12 21:59N 40°36' W 074°12'0 0.1
2017-Oct-12 20:13N 40°36' W 074°12'0 0.0
2017-Oct-12 19:43N 40°36' W 074°12'0 1.3
2017-Oct-12 19:30N 40°35' W 074°12'4 0.8
2017-Oct-12 14:50N 40°32' W 074°15'0 0.3
2017-Oct-12 13:10N 40°33' W 074°15'  

Dump ship's entire track history